Time;durP1;ratioP1;P1;durP2;ratioP2;P2;SDS_P1;SDS_P2;PMS_P1;PMS_P2;Temp;Humidity;BMP_temperature;BMP_pressure;BME280_temperature;BME280_humidity;BME280_pressure;Samples;Min_cycle;Max_cycle;Signal;HPM_P1;HPM_P2
2021/10/15 00:01:32;;;;;;;20.58;10.65;;;;;;;;;;5011733;28;20692;-52
2021/10/15 00:03:58;;;;;;;23.10;11.27;;;;;;;;;;5012966;28;20057;-53
2021/10/15 00:06:24;;;;;;;18.25;10.77;;;;;;;;;;5012431;28;20561;-52
2021/10/15 00:08:50;;;;;;;24.42;11.80;;;;;;;;;;5012779;28;20030;-51
2021/10/15 00:11:16;;;;;;;21.50;11.02;;;;;;;;;;5002780;28;20080;-51
2021/10/15 00:13:42;;;;;;;21.63;10.90;;;;;;;;;;5009183;28;20522;-52
2021/10/15 00:16:08;;;;;;;20.25;11.32;;;;;;;;;;5011912;28;20030;-56
2021/10/15 00:18:34;;;;;;;18.92;10.32;;;;;;;;;;5012556;28;20045;-51
2021/10/15 00:21:00;;;;;;;21.98;11.40;;;;;;;;;;5012210;28;20084;-54
2021/10/15 00:23:26;;;;;;;22.45;10.85;;;;;;;;;;5012692;28;20026;-54
2021/10/15 00:25:52;;;;;;;20.58;10.30;;;;;;;;;;5010600;28;20041;-52
2021/10/15 00:28:18;;;;;;;18.48;9.80;;;;;;;;;;5011207;28;20034;-52
2021/10/15 00:30:44;;;;;;;19.10;9.25;;;;;;;;;;5011510;28;20091;-53
2021/10/15 00:33:10;;;;;;;16.90;9.55;;;;;;;;;;5011839;28;20033;-51
2021/10/15 00:35:36;;;;;;;18.20;9.25;;;;;;;;;;5012123;28;20018;-52
2021/10/15 00:38:02;;;;;;;17.10;9.38;;;;;;;;;;5012167;28;20022;-51
2021/10/15 00:40:27;;;;;;;14.93;8.45;;;;;;;;;;5009209;28;20113;-51
2021/10/15 00:42:53;;;;;;;14.10;8.07;;;;;;;;;;5009304;28;20034;-52
2021/10/15 00:45:19;;;;;;;16.75;8.70;;;;;;;;;;5012245;28;20041;-51
2021/10/15 00:47:45;;;;;;;15.95;8.15;;;;;;;;;;5012194;28;20049;-51
2021/10/15 00:50:11;;;;;;;13.75;8.35;;;;;;;;;;5011727;28;20030;-52
2021/10/15 00:52:40;;;;;;;12.38;7.43;;;;;;;;;;5011755;28;20029;-51
2021/10/15 00:55:06;;;;;;;13.25;7.88;;;;;;;;;;5011085;28;20034;-51
2021/10/15 00:57:32;;;;;;;11.98;7.63;;;;;;;;;;5011667;28;20026;-53
2021/10/15 00:59:58;;;;;;;13.55;6.85;;;;;;;;;;5008133;28;20054;-52
2021/10/15 01:02:24;;;;;;;16.13;7.72;;;;;;;;;;5011709;28;20149;-52
2021/10/15 01:04:50;;;;;;;13.43;7.10;;;;;;;;;;5011146;28;20045;-51
2021/10/15 01:07:16;;;;;;;11.27;6.82;;;;;;;;;;5011545;28;20105;-53
2021/10/15 01:09:42;;;;;;;11.50;7.55;;;;;;;;;;5011341;28;20026;-53
2021/10/15 01:12:08;;;;;;;13.60;7.82;;;;;;;;;;5011487;28;20109;-52
2021/10/15 01:14:34;;;;;;;15.98;7.28;;;;;;;;;;5013647;28;20026;-51
2021/10/15 01:17:01;;;;;;;10.77;6.40;;;;;;;;;;5015483;28;20084;-51
2021/10/15 01:19:27;;;;;;;12.15;7.07;;;;;;;;;;5014976;28;20037;-53
2021/10/15 01:21:53;;;;;;;12.65;6.78;;;;;;;;;;5015400;28;20037;-54
2021/10/15 01:24:19;;;;;;;11.55;6.90;;;;;;;;;;5015167;28;20026;-56
2021/10/15 01:26:45;;;;;;;11.05;6.60;;;;;;;;;;5015243;28;20022;-54
2021/10/15 01:29:11;;;;;;;10.43;6.53;;;;;;;;;;5013957;28;20022;-55
2021/10/15 01:31:38;;;;;;;10.40;5.57;;;;;;;;;;5014655;28;20091;-52
2021/10/15 01:34:04;;;;;;;13.88;6.97;;;;;;;;;;5014405;28;20038;-53
2021/10/15 01:36:30;;;;;;;10.35;6.25;;;;;;;;;;5015180;28;20040;-54
2021/10/15 01:38:56;;;;;;;11.07;6.35;;;;;;;;;;5012672;28;20031;-53
2021/10/15 01:41:22;;;;;;;11.15;5.93;;;;;;;;;;5014515;28;20041;-52
2021/10/15 01:43:48;;;;;;;11.00;6.72;;;;;;;;;;5014995;28;20561;-55
2021/10/15 01:46:14;;;;;;;10.52;6.22;;;;;;;;;;5015054;28;20110;-52
2021/10/15 01:48:40;;;;;;;10.13;5.93;;;;;;;;;;5014563;28;20113;-52
2021/10/15 01:51:06;;;;;;;9.38;5.95;;;;;;;;;;5014938;28;20021;-54
2021/10/15 01:53:32;;;;;;;10.55;6.70;;;;;;;;;;5014931;28;20654;-53
2021/10/15 01:55:58;;;;;;;9.95;6.18;;;;;;;;;;5014833;28;20022;-53
2021/10/15 01:58:24;;;;;;;13.90;6.15;;;;;;;;;;5014703;28;20355;-52
2021/10/15 02:00:50;;;;;;;10.30;5.95;;;;;;;;;;5014181;28;20037;-51
2021/10/15 02:03:16;;;;;;;11.05;6.10;;;;;;;;;;5013754;28;20051;-52
2021/10/15 02:05:42;;;;;;;10.93;5.85;;;;;;;;;;5014971;28;20052;-52
2021/10/15 02:08:09;;;;;;;10.10;6.10;;;;;;;;;;5014136;28;20462;-54
2021/10/15 02:10:35;;;;;;;10.30;6.25;;;;;;;;;;5014429;28;20442;-53
2021/10/15 02:13:01;;;;;;;12.02;5.63;;;;;;;;;;5014748;28;20041;-54
2021/10/15 02:15:27;;;;;;;9.82;5.60;;;;;;;;;;5006849;28;20025;-51
2021/10/15 02:17:53;;;;;;;9.60;5.55;;;;;;;;;;5014353;28;20030;-52
2021/10/15 02:20:20;;;;;;;10.52;6.22;;;;;;;;;;5014217;28;20493;-51
2021/10/15 02:22:48;;;;;;;12.13;5.97;;;;;;;;;;5014390;28;20145;-52
2021/10/15 02:25:15;;;;;;;10.55;5.57;;;;;;;;;;5013954;28;20087;-51
2021/10/15 02:27:41;;;;;;;10.48;5.95;;;;;;;;;;5014353;28;20564;-54
2021/10/15 02:30:08;;;;;;;9.48;5.45;;;;;;;;;;5013433;28;20488;-55
2021/10/15 02:32:34;;;;;;;11.15;6.43;;;;;;;;;;5013568;28;20461;-52
2021/10/15 02:35:00;;;;;;;14.77;6.10;;;;;;;;;;5014262;28;20026;-56
2021/10/15 02:37:26;;;;;;;8.88;5.72;;;;;;;;;;5014105;28;20022;-51
2021/10/15 02:39:52;;;;;;;10.93;5.45;;;;;;;;;;5013159;28;20030;-56
2021/10/15 02:42:18;;;;;;;9.38;5.50;;;;;;;;;;5008939;28;20537;-51
2021/10/15 02:44:44;;;;;;;10.50;5.40;;;;;;;;;;5013946;28;20033;-55
2021/10/15 02:47:10;;;;;;;11.18;5.90;;;;;;;;;;5013888;28;20061;-51
2021/10/15 02:49:36;;;;;;;10.43;5.75;;;;;;;;;;5013845;28;20091;-52
2021/10/15 02:52:02;;;;;;;11.18;6.07;;;;;;;;;;5013028;28;20026;-53
2021/10/15 02:54:28;;;;;;;7.78;4.55;;;;;;;;;;5011648;28;20029;-54
2021/10/15 02:56:54;;;;;;;8.35;5.18;;;;;;;;;;5011739;28;20041;-54
2021/10/15 02:59:20;;;;;;;7.80;5.00;;;;;;;;;;5013346;28;20108;-53
2021/10/15 03:01:46;;;;;;;7.82;4.45;;;;;;;;;;5013002;28;20026;-55
2021/10/15 03:04:12;;;;;;;9.82;5.30;;;;;;;;;;5011904;28;20113;-55
2021/10/15 03:06:38;;;;;;;8.48;5.00;;;;;;;;;;5012411;28;20022;-50
2021/10/15 03:09:04;;;;;;;7.07;4.63;;;;;;;;;;5013725;28;20080;-52
2021/10/15 03:11:30;;;;;;;8.18;5.38;;;;;;;;;;5012751;28;20371;-52
2021/10/15 03:13:56;;;;;;;9.20;4.55;;;;;;;;;;5010339;28;20041;-53
2021/10/15 03:16:22;;;;;;;10.18;5.95;;;;;;;;;;5012319;28;20057;-53
2021/10/15 03:18:48;;;;;;;8.30;4.97;;;;;;;;;;5013536;28;20434;-51
2021/10/15 03:21:14;;;;;;;9.20;4.53;;;;;;;;;;5013359;28;20026;-56
2021/10/15 03:23:40;;;;;;;8.23;4.45;;;;;;;;;;5013674;28;20026;-51
2021/10/15 03:26:06;;;;;;;9.18;5.10;;;;;;;;;;5012884;28;20130;-54
2021/10/15 03:28:33;;;;;;;8.65;4.75;;;;;;;;;;5012756;28;20029;-53
2021/10/15 03:30:59;;;;;;;10.07;5.15;;;;;;;;;;5012184;28;20104;-52
2021/10/15 03:33:25;;;;;;;8.80;4.93;;;;;;;;;;5013362;28;20034;-52
2021/10/15 03:35:50;;;;;;;7.30;4.63;;;;;;;;;;5012811;28;20022;-52
2021/10/15 03:38:16;;;;;;;8.75;5.15;;;;;;;;;;5012621;28;20108;-54
2021/10/15 03:40:42;;;;;;;6.07;4.07;;;;;;;;;;5012152;28;20018;-53
2021/10/15 03:43:08;;;;;;;6.10;3.92;;;;;;;;;;5003687;28;20061;-51
2021/10/15 03:45:34;;;;;;;7.80;4.65;;;;;;;;;;5011461;28;20032;-52
2021/10/15 03:48:00;;;;;;;9.20;4.78;;;;;;;;;;5013111;28;20033;-51
2021/10/15 03:50:26;;;;;;;6.30;4.15;;;;;;;;;;5012715;28;20506;-53
2021/10/15 03:52:52;;;;;;;8.30;4.20;;;;;;;;;;5013022;28;20422;-51
2021/10/15 03:55:18;;;;;;;6.80;4.07;;;;;;;;;;5012701;28;20026;-54
2021/10/15 03:57:44;;;;;;;6.38;4.05;;;;;;;;;;5012251;28;20120;-51
2021/10/15 04:00:11;;;;;;;9.07;4.60;;;;;;;;;;5013249;28;20032;-53
2021/10/15 04:02:38;;;;;;;7.95;4.63;;;;;;;;;;5012311;28;20117;-51
2021/10/15 04:05:05;;;;;;;6.25;4.18;;;;;;;;;;5012689;28;20033;-51
2021/10/15 04:07:31;;;;;;;6.50;3.88;;;;;;;;;;5012572;28;20113;-51
2021/10/15 04:09:57;;;;;;;6.78;3.95;;;;;;;;;;5012509;28;20359;-52
2021/10/15 04:12:23;;;;;;;7.57;3.83;;;;;;;;;;5012196;28;20042;-55
2021/10/15 04:14:49;;;;;;;5.70;3.63;;;;;;;;;;5012633;28;20026;-51
2021/10/15 04:17:15;;;;;;;4.32;3.15;;;;;;;;;;5012076;28;20050;-55
2021/10/15 04:19:41;;;;;;;6.25;3.53;;;;;;;;;;5012524;28;20026;-54
2021/10/15 04:22:10;;;;;;;5.93;3.85;;;;;;;;;;5012200;28;20104;-52
2021/10/15 04:24:36;;;;;;;5.78;3.45;;;;;;;;;;5012124;28;20022;-55
2021/10/15 04:27:02;;;;;;;5.85;3.60;;;;;;;;;;5012299;28;20036;-52
2021/10/15 04:29:28;;;;;;;6.38;3.75;;;;;;;;;;5011587;28;20038;-50
2021/10/15 04:31:54;;;;;;;7.43;3.80;;;;;;;;;;5011181;28;20061;-52
2021/10/15 04:34:20;;;;;;;6.65;3.38;;;;;;;;;;5012350;28;20034;-52
2021/10/15 04:36:46;;;;;;;4.60;3.30;;;;;;;;;;5012221;28;20112;-51
2021/10/15 04:39:12;;;;;;;4.95;3.38;;;;;;;;;;5011994;28;20528;-54
2021/10/15 04:41:38;;;;;;;8.27;4.43;;;;;;;;;;5008454;28;20416;-55
2021/10/15 04:44:04;;;;;;;8.05;4.50;;;;;;;;;;5009826;28;20549;-50
2021/10/15 04:46:30;;;;;;;7.82;3.90;;;;;;;;;;5011986;28;20466;-52
2021/10/15 04:48:56;;;;;;;5.93;3.47;;;;;;;;;;5014721;28;20044;-52
2021/10/15 04:51:22;;;;;;;6.22;3.72;;;;;;;;;;5016207;28;20105;-51
2021/10/15 04:53:48;;;;;;;6.60;3.80;;;;;;;;;;5016012;28;20076;-53
2021/10/15 04:56:14;;;;;;;7.75;3.90;;;;;;;;;;5015416;28;20064;-55
2021/10/15 04:58:40;;;;;;;7.15;3.22;;;;;;;;;;5015847;28;20040;-52
2021/10/15 05:01:06;;;;;;;5.60;3.22;;;;;;;;;;5015720;28;20116;-55
2021/10/15 05:03:32;;;;;;;6.13;3.40;;;;;;;;;;5013653;28;20569;-51
2021/10/15 05:05:58;;;;;;;5.55;3.25;;;;;;;;;;5015815;28;20037;-53
2021/10/15 05:08:30;;;;;;;5.25;3.58;;;;;;;;;;5014992;28;20037;-51
2021/10/15 05:10:56;;;;;;;5.70;3.75;;;;;;;;;;5015062;28;20074;-51
2021/10/15 05:13:22;;;;;;;8.50;4.18;;;;;;;;;;5015566;28;20072;-54
2021/10/15 05:15:48;;;;;;;7.47;4.18;;;;;;;;;;5015629;28;20481;-51
2021/10/15 05:18:15;;;;;;;6.03;3.38;;;;;;;;;;5015772;28;20034;-53
2021/10/15 05:20:41;;;;;;;5.53;3.75;;;;;;;;;;5015633;28;20018;-52
2021/10/15 05:23:08;;;;;;;6.53;4.20;;;;;;;;;;5015000;28;20029;-51
2021/10/15 05:25:34;;;;;;;5.63;3.20;;;;;;;;;;5014917;28;20629;-52
2021/10/15 05:28:00;;;;;;;5.88;3.85;;;;;;;;;;5014636;28;20117;-52
2021/10/15 05:30:26;;;;;;;5.38;3.30;;;;;;;;;;5014969;28;20757;-51
2021/10/15 05:32:53;;;;;;;8.45;3.83;;;;;;;;;;5013594;28;20077;-53
2021/10/15 05:35:19;;;;;;;7.50;4.85;;;;;;;;;;5015166;28;20470;-53
2021/10/15 05:37:45;;;;;;;5.40;3.17;;;;;;;;;;5014718;28;20076;-52
2021/10/15 05:40:12;;;;;;;6.28;3.30;;;;;;;;;;5014128;28;20426;-53
2021/10/15 05:42:43;;;;;;;6.78;3.45;;;;;;;;;;5014941;28;20034;-51
2021/10/15 05:45:09;;;;;;;9.32;3.80;;;;;;;;;;5014016;28;20566;-52
2021/10/15 05:47:37;;;;;;;5.32;2.88;;;;;;;;;;5014713;28;20113;-55
2021/10/15 05:50:04;;;;;;;5.47;3.38;;;;;;;;;;5014137;28;20087;-54
2021/10/15 05:52:35;;;;;;;7.22;3.10;;;;;;;;;;5014435;28;20099;-55
2021/10/15 05:59:56;;;;;;;6.43;3.38;;;;;;;;;;5014087;28;20022;-52
2021/10/15 06:02:23;;;;;;;8.45;4.10;;;;;;;;;;5013530;28;20034;-53
2021/10/15 06:15:46;;;;;;;6.72;2.97;;;;;;;;;;5008773;28;20041;-53
2021/10/15 06:18:18;;;;;;;5.55;3.03;;;;;;;;;;5012885;28;20382;-55
2021/10/15 06:20:44;;;;;;;4.95;2.67;;;;;;;;;;5013231;28;20061;-51
2021/10/15 06:23:11;;;;;;;3.97;2.80;;;;;;;;;;5012309;28;20466;-52
2021/10/15 06:25:37;;;;;;;7.40;3.25;;;;;;;;;;5012211;28;20026;-53
2021/10/15 06:28:04;;;;;;;4.18;2.22;;;;;;;;;;5010192;28;20026;-52
2021/10/15 06:30:31;;;;;;;3.65;2.65;;;;;;;;;;5011375;28;20032;-52
2021/10/15 06:32:58;;;;;;;4.78;2.55;;;;;;;;;;5012925;28;20070;-52
2021/10/15 06:35:24;;;;;;;4.57;2.20;;;;;;;;;;5013659;28;20032;-52
2021/10/15 06:37:50;;;;;;;4.22;2.20;;;;;;;;;;5012184;28;20034;-51
2021/10/15 06:40:16;;;;;;;5.57;3.05;;;;;;;;;;5013100;28;20036;-55
2021/10/15 06:42:42;;;;;;;4.95;2.67;;;;;;;;;;5018426;28;20029;-50
2021/10/15 06:45:09;;;;;;;11.30;4.40;;;;;;;;;;5013628;28;20044;-54
2021/10/15 06:47:35;;;;;;;4.68;2.63;;;;;;;;;;5012952;28;20048;-50
2021/10/15 06:50:01;;;;;;;4.93;2.50;;;;;;;;;;5011907;28;20034;-53
2021/10/15 06:52:27;;;;;;;3.40;2.22;;;;;;;;;;5012000;28;20539;-51
2021/10/15 06:54:53;;;;;;;3.38;2.15;;;;;;;;;;5013669;28;20072;-51
2021/10/15 06:57:19;;;;;;;2.80;1.98;;;;;;;;;;5013791;28;20036;-53
2021/10/15 06:59:45;;;;;;;4.35;2.20;;;;;;;;;;5013743;28;20510;-52
2021/10/15 07:02:11;;;;;;;4.35;2.60;;;;;;;;;;5013414;28;20132;-52
2021/10/15 07:04:37;;;;;;;5.65;2.97;;;;;;;;;;5013412;28;20501;-52
2021/10/15 07:07:04;;;;;;;6.60;5.78;;;;;;;;;;5012914;28;20049;-54
2021/10/15 07:09:30;;;;;;;2.75;2.00;;;;;;;;;;5004495;28;20422;-51
2021/10/15 07:11:55;;;;;;;2.53;1.55;;;;;;;;;;5011557;28;20048;-51
2021/10/15 07:14:22;;;;;;;3.88;2.17;;;;;;;;;;5013309;28;20474;-51
2021/10/15 07:16:48;;;;;;;3.38;2.08;;;;;;;;;;5007091;28;20022;-52
2021/10/15 07:19:14;;;;;;;5.35;1.83;;;;;;;;;;5013017;28;20037;-53
2021/10/15 07:21:40;;;;;;;2.95;1.90;;;;;;;;;;5012915;28;20486;-53
2021/10/15 07:24:06;;;;;;;3.45;1.80;;;;;;;;;;5013489;28;20645;-50
2021/10/15 07:26:37;;;;;;;4.10;2.20;;;;;;;;;;5007839;28;20026;-54
2021/10/15 07:29:03;;;;;;;4.60;1.80;;;;;;;;;;5013058;28;20034;-51
2021/10/15 07:31:29;;;;;;;3.83;2.10;;;;;;;;;;5013161;28;20053;-50
2021/10/15 07:33:55;;;;;;;4.60;3.05;;;;;;;;;;5013282;28;20378;-50
2021/10/15 07:36:21;;;;;;;5.22;1.90;;;;;;;;;;5012871;28;20044;-51
2021/10/15 07:38:47;;;;;;;92.70;39.60;;;;;;;;;;5011662;28;20404;-50
2021/10/15 07:41:13;;;;;;;7.72;2.75;;;;;;;;;;5012798;28;20029;-52
2021/10/15 07:43:39;;;;;;;4.75;2.30;;;;;;;;;;5009662;28;20058;-52
2021/10/15 07:46:05;;;;;;;2.88;1.73;;;;;;;;;;5012740;28;20022;-54
2021/10/15 07:48:31;;;;;;;3.17;1.77;;;;;;;;;;5012091;28;20033;-50
2021/10/15 07:50:57;;;;;;;3.92;1.83;;;;;;;;;;5010624;28;20180;-55
2021/10/15 07:53:23;;;;;;;3.30;2.05;;;;;;;;;;5012328;28;20470;-54
2021/10/15 07:55:50;;;;;;;2.33;1.20;;;;;;;;;;5004167;28;20030;-54
2021/10/15 07:58:16;;;;;;;4.50;2.00;;;;;;;;;;5012927;28;20100;-51
2021/10/15 08:00:42;;;;;;;1.92;1.25;;;;;;;;;;5011952;28;20068;-51
2021/10/15 08:03:08;;;;;;;3.92;2.40;;;;;;;;;;5011955;28;20423;-50
2021/10/15 08:05:34;;;;;;;2.42;1.85;;;;;;;;;;5011936;28;20034;-50
2021/10/15 08:08:00;;;;;;;2.72;1.67;;;;;;;;;;5012467;28;20046;-56
2021/10/15 08:10:26;;;;;;;4.25;2.85;;;;;;;;;;5011183;28;20115;-52
2021/10/15 08:12:52;;;;;;;3.88;2.75;;;;;;;;;;5007199;28;20479;-51
2021/10/15 08:15:18;;;;;;;4.78;2.10;;;;;;;;;;5020703;28;20061;-53
2021/10/15 08:17:45;;;;;;;3.05;1.73;;;;;;;;;;5013403;28;20036;-51
2021/10/15 08:20:12;;;;;;;2.13;1.33;;;;;;;;;;5012162;28;20030;-52
2021/10/15 08:22:38;;;;;;;2.88;1.88;;;;;;;;;;5011404;28;20030;-52
2021/10/15 08:25:05;;;;;;;5.68;1.80;;;;;;;;;;5013318;28;20025;-52
2021/10/15 08:27:31;;;;;;;2.70;1.33;;;;;;;;;;5012232;28;20091;-54
2021/10/15 08:29:57;;;;;;;2.97;1.70;;;;;;;;;;5007223;28;20038;-51
2021/10/15 08:32:23;;;;;;;2.28;1.42;;;;;;;;;;5003469;28;20042;-55
2021/10/15 08:34:50;;;;;;;2.63;1.50;;;;;;;;;;5011661;28;20056;-50
2021/10/15 08:37:17;;;;;;;4.20;1.55;;;;;;;;;;5012217;28;20097;-51
2021/10/15 08:39:43;;;;;;;3.30;1.63;;;;;;;;;;5010887;28;20451;-50
2021/10/15 08:42:09;;;;;;;2.38;1.50;;;;;;;;;;5005894;28;20041;-53
2021/10/15 08:44:36;;;;;;;2.95;1.58;;;;;;;;;;5009029;28;20026;-54
2021/10/15 08:47:03;;;;;;;2.30;1.25;;;;;;;;;;5011226;28;20084;-51
2021/10/15 08:49:29;;;;;;;2.83;1.30;;;;;;;;;;5006756;28;20030;-52
2021/10/15 08:51:55;;;;;;;3.03;1.60;;;;;;;;;;5010072;28;20033;-51
2021/10/15 08:54:21;;;;;;;1.85;1.30;;;;;;;;;;5011388;28;20625;-53
2021/10/15 08:56:47;;;;;;;1.77;1.05;;;;;;;;;;5009939;28;20045;-53
2021/10/15 08:59:19;;;;;;;5.65;1.58;;;;;;;;;;5011571;28;20462;-54
2021/10/15 09:01:49;;;;;;;3.95;1.55;;;;;;;;;;5011533;28;20033;-53
2021/10/15 09:04:18;;;;;;;1.15;0.85;;;;;;;;;;5011142;28;20041;-51
2021/10/15 09:06:45;;;;;;;2.60;1.17;;;;;;;;;;5010839;28;20022;-52
2021/10/15 09:09:11;;;;;;;2.92;1.05;;;;;;;;;;5008760;28;20037;-51
2021/10/15 09:11:46;;;;;;;2.17;1.38;;;;;;;;;;5006001;28;20034;-53
2021/10/15 09:14:25;;;;;;;2.78;1.23;;;;;;;;;;5008987;28;20075;-50
2021/10/15 09:16:56;;;;;;;1.50;0.95;;;;;;;;;;5011106;28;20092;-53
2021/10/15 09:19:30;;;;;;;6.28;1.30;;;;;;;;;;5011029;28;20034;-52
2021/10/15 09:22:06;;;;;;;1.92;1.30;;;;;;;;;;5011697;28;20042;-53
2021/10/15 09:24:44;;;;;;;1.63;0.90;;;;;;;;;;5009601;28;20026;-54
2021/10/15 09:27:18;;;;;;;6.60;1.30;;;;;;;;;;5011587;28;20026;-53
2021/10/15 09:29:52;;;;;;;1.30;0.98;;;;;;;;;;5012026;28;20026;-52
2021/10/15 09:32:18;;;;;;;2.47;1.42;;;;;;;;;;5010845;28;20069;-52
2021/10/15 09:34:45;;;;;;;2.25;1.40;;;;;;;;;;5009388;28;20109;-53
2021/10/15 09:37:12;;;;;;;1.98;1.10;;;;;;;;;;5012586;28;20049;-50
2021/10/15 09:39:39;;;;;;;2.63;1.00;;;;;;;;;;5009863;28;20042;-53
2021/10/15 09:42:04;;;;;;;2.35;1.10;;;;;;;;;;5013728;28;20041;-52
2021/10/15 09:44:33;;;;;;;1.75;0.82;;;;;;;;;;5014991;28;20026;-51
2021/10/15 09:47:16;;;;;;;4.03;1.10;;;;;;;;;;5011270;28;20037;-55
2021/10/15 09:49:48;;;;;;;3.38;1.20;;;;;;;;;;5014794;28;20037;-50
2021/10/15 09:52:22;;;;;;;2.63;1.27;;;;;;;;;;5014765;28;20030;-52
2021/10/15 09:54:55;;;;;;;2.03;1.15;;;;;;;;;;5014143;28;20045;-50
2021/10/15 09:57:38;;;;;;;1.63;1.02;;;;;;;;;;5013996;28;20769;-52
2021/10/15 10:00:08;;;;;;;3.28;1.10;;;;;;;;;;5015081;28;20359;-52
2021/10/15 10:02:35;;;;;;;1.95;1.10;;;;;;;;;;5014402;28;20502;-56
2021/10/15 10:05:01;;;;;;;3.58;1.33;;;;;;;;;;5014799;28;20029;-51
2021/10/15 10:07:28;;;;;;;1.45;0.88;;;;;;;;;;5005093;28;20486;-53
2021/10/15 10:09:54;;;;;;;2.58;1.25;;;;;;;;;;5009047;28;20132;-54
2021/10/15 10:12:20;;;;;;;2.35;1.23;;;;;;;;;;5014869;28;20084;-53
2021/10/15 10:14:46;;;;;;;1.92;0.95;;;;;;;;;;5014610;28;20018;-54
2021/10/15 10:17:15;;;;;;;1.67;1.05;;;;;;;;;;5008798;28;20053;-52
2021/10/15 10:19:42;;;;;;;2.05;1.05;;;;;;;;;;5013160;28;20065;-51
2021/10/15 10:22:08;;;;;;;1.90;1.25;;;;;;;;;;5013630;28;20066;-55
2021/10/15 10:24:35;;;;;;;2.85;1.00;;;;;;;;;;5014448;28;20056;-50
2021/10/15 10:27:01;;;;;;;3.17;1.48;;;;;;;;;;5010062;28;20111;-51
2021/10/15 10:29:27;;;;;;;1.67;0.98;;;;;;;;;;5014534;28;20033;-53
2021/10/15 10:31:58;;;;;;;2.88;1.45;;;;;;;;;;5014216;28;20054;-50
2021/10/15 10:34:26;;;;;;;2.50;1.30;;;;;;;;;;5012963;28;20033;-51
2021/10/15 10:37:25;;;;;;;2.22;1.20;;;;;;;;;;5011772;28;20037;-51
2021/10/15 10:40:07;;;;;;;2.20;1.23;;;;;;;;;;5014491;28;20042;-55
2021/10/15 10:42:34;;;;;;;1.50;1.30;;;;;;;;;;5012772;28;20034;-56
2021/10/15 10:45:00;;;;;;;1.58;1.13;;;;;;;;;;5014167;28;20443;-51
2021/10/15 10:47:26;;;;;;;3.60;1.85;;;;;;;;;;5013187;28;20034;-54
2021/10/15 10:50:09;;;;;;;2.75;1.45;;;;;;;;;;5013968;28;20044;-51
2021/10/15 10:52:36;;;;;;;1.77;1.25;;;;;;;;;;5013935;28;20022;-51
2021/10/15 10:55:02;;;;;;;2.08;1.45;;;;;;;;;;5010005;28;20113;-52
2021/10/15 10:57:30;;;;;;;3.45;1.95;;;;;;;;;;5013613;28;20034;-51
2021/10/15 11:00:16;;;;;;;4.03;1.90;;;;;;;;;;5013461;28;20026;-52
2021/10/15 11:02:46;;;;;;;3.90;1.90;;;;;;;;;;5012952;28;20065;-53
2021/10/15 11:05:12;;;;;;;2.97;2.00;;;;;;;;;;5010698;28;20390;-52
2021/10/15 11:07:39;;;;;;;2.75;1.58;;;;;;;;;;5009385;28;20116;-52
2021/10/15 11:10:06;;;;;;;2.03;1.50;;;;;;;;;;5004342;28;20041;-51
2021/10/15 11:12:32;;;;;;;2.78;1.67;;;;;;;;;;5011935;28;20072;-54
2021/10/15 11:14:59;;;;;;;2.25;1.40;;;;;;;;;;5012666;28;20045;-53
2021/10/15 11:17:26;;;;;;;4.38;1.70;;;;;;;;;;5012913;28;20088;-53
2021/10/15 11:20:11;;;;;;;3.15;2.08;;;;;;;;;;5013130;28;20467;-53
2021/10/15 11:22:39;;;;;;;4.32;2.15;;;;;;;;;;5011423;28;20097;-50
2021/10/15 11:25:06;;;;;;;2.78;1.80;;;;;;;;;;5009527;28;20675;-56
2021/10/15 11:27:32;;;;;;;3.65;1.80;;;;;;;;;;5011162;28;20022;-53
2021/10/15 11:29:59;;;;;;;6.78;2.30;;;;;;;;;;5012375;28;20551;-51
2021/10/15 11:32:32;;;;;;;4.38;2.25;;;;;;;;;;5012472;28;20053;-54
2021/10/15 11:34:58;;;;;;;;;;;;;;;;;;5012475;28;20474;-55
2021/10/15 11:37:40;;;;;;;4.95;2.38;;;;;;;;;;5012579;28;19953;-52
2021/10/15 11:40:24;;;;;;;3.95;2.47;;;;;;;;;;5008449;28;20050;-53
2021/10/15 11:42:51;;;;;;;4.30;2.10;;;;;;;;;;5012581;28;20034;-53
2021/10/15 11:45:28;;;;;;;5.13;3.03;;;;;;;;;;5012772;28;20359;-52
2021/10/15 11:48:17;;;;;;;3.58;2.13;;;;;;;;;;5008402;28;20053;-53
2021/10/15 11:50:50;;;;;;;3.53;1.50;;;;;;;;;;5004974;28;20045;-51
2021/10/15 11:53:16;;;;;;;;;;;;;;;;;;5013049;28;20096;-53
2021/10/15 11:55:42;;;;;;;2.03;1.20;;;;;;;;;;5012425;28;19910;-54
2021/10/15 11:58:22;;;;;;;3.08;1.02;;;;;;;;;;5011300;28;20101;-51
2021/10/15 12:01:05;;;;;;;2.88;0.90;;;;;;;;;;5009718;28;20041;-51
2021/10/15 12:03:38;;;;;;;3.17;1.20;;;;;;;;;;5012522;28;20036;-52
2021/10/15 12:06:04;;;;;;;;;;;;;;;;;;5012121;28;20038;-51
2021/10/15 12:08:30;;;;;;;1.77;0.90;;;;;;;;;;5010460;28;19915;-53
2021/10/15 12:10:56;;;;;;;1.25;0.77;;;;;;;;;;5012688;28;20386;-55
2021/10/15 12:13:24;;;;;;;5.10;0.88;;;;;;;;;;5012506;28;20077;-57
2021/10/15 12:15:50;;;;;;;1.88;1.02;;;;;;;;;;5007315;28;20041;-55
2021/10/15 12:18:18;;;;;;;0.90;0.80;;;;;;;;;;5010917;28;20474;-54
2021/10/15 12:20:44;;;;;;;1.67;0.90;;;;;;;;;;5010975;28;20023;-51
2021/10/15 12:23:10;;;;;;;0.75;0.60;;;;;;;;;;5003165;28;20397;-51
2021/10/15 12:25:36;;;;;;;2.20;1.00;;;;;;;;;;5011329;28;20105;-53
2021/10/15 12:28:15;;;;;;;0.50;0.45;;;;;;;;;;5010680;28;20552;-54
2021/10/15 12:30:41;;;;;;;3.35;1.08;;;;;;;;;;5001882;28;20080;-54
2021/10/15 12:33:08;;;;;;;1.40;0.88;;;;;;;;;;5011819;28;20029;-52
2021/10/15 12:35:34;;;;;;;3.20;1.35;;;;;;;;;;5011243;28;20026;-55
2021/10/15 12:38:00;;;;;;;2.85;0.80;;;;;;;;;;5011159;28;20026;-56
2021/10/15 12:40:28;;;;;;;2.45;0.80;;;;;;;;;;5009708;28;20026;-54
2021/10/15 12:43:06;;;;;;;0.93;0.60;;;;;;;;;;5010336;28;20076;-53
2021/10/15 12:45:40;;;;;;;0.88;0.50;;;;;;;;;;5011329;28;20064;-53
2021/10/15 12:48:17;;;;;;;3.40;1.58;;;;;;;;;;5009223;28;20041;-52
2021/10/15 12:51:04;;;;;;;1.33;0.60;;;;;;;;;;5010419;28;20505;-54
2021/10/15 12:53:53;;;;;;;2.53;0.63;;;;;;;;;;5006101;28;20436;-54
2021/10/15 12:56:20;;;;;;;0.93;0.47;;;;;;;;;;5010789;28;20371;-53
2021/10/15 12:58:57;;;;;;;0.30;0.30;;;;;;;;;;5008548;28;20034;-55
2021/10/15 13:01:24;;;;;;;0.77;0.47;;;;;;;;;;5003853;28;20112;-55
2021/10/15 13:03:51;;;;;;;0.43;0.40;;;;;;;;;;5010002;28;20038;-56
2021/10/15 13:06:19;;;;;;;0.75;0.60;;;;;;;;;;5009926;28;20072;-55
2021/10/15 13:08:49;;;;;;;2.85;0.60;;;;;;;;;;5007458;28;20390;-57
2021/10/15 13:11:17;;;;;;;1.83;0.50;;;;;;;;;;5014768;28;20073;-53
2021/10/15 13:13:44;;;;;;;1.63;0.63;;;;;;;;;;5014034;28;20042;-54
2021/10/15 13:16:10;;;;;;;1.05;0.60;;;;;;;;;;5014738;28;20030;-55
2021/10/15 13:18:35;;;;;;;0.50;0.47;;;;;;;;;;5009284;28;20493;-51
2021/10/15 13:21:01;;;;;;;1.67;0.60;;;;;;;;;;5014619;28;20467;-52
2021/10/15 13:23:27;;;;;;;0.55;0.40;;;;;;;;;;5013119;28;20065;-52
2021/10/15 13:25:53;;;;;;;2.60;0.43;;;;;;;;;;5015413;28;20084;-52
2021/10/15 13:28:19;;;;;;;0.73;0.50;;;;;;;;;;5014219;28;20030;-52
2021/10/15 13:30:45;;;;;;;0.80;0.70;;;;;;;;;;5008002;28;20074;-52
2021/10/15 13:33:11;;;;;;;2.25;0.73;;;;;;;;;;5015233;28;20025;-55
2021/10/15 13:35:37;;;;;;;0.90;0.70;;;;;;;;;;5011203;28;20056;-52
2021/10/15 13:38:08;;;;;;;0.40;0.40;;;;;;;;;;5014149;28;20030;-53
2021/10/15 13:40:47;;;;;;;1.52;0.80;;;;;;;;;;5010303;28;20022;-51
2021/10/15 13:43:33;;;;;;;1.85;0.60;;;;;;;;;;5015319;28;20042;-53
2021/10/15 13:46:09;;;;;;;2.25;0.70;;;;;;;;;;5015196;28;20049;-51
2021/10/15 13:51:23;;;;;;;1.58;0.70;;;;;;;;;;5013302;28;20084;-54
2021/10/15 13:53:49;;;;;;;0.95;0.50;;;;;;;;;;5014775;28;20048;-53
2021/10/15 13:56:16;;;;;;;2.42;0.80;;;;;;;;;;5014995;28;20117;-54
2021/10/15 13:58:45;;;;;;;0.50;0.38;;;;;;;;;;5013908;28;20172;-54
2021/10/15 14:01:17;;;;;;;1.65;0.50;;;;;;;;;;5013749;28;20068;-52
2021/10/15 14:06:15;;;;;;;1.45;0.25;;;;;;;;;;5014622;28;20235;-55
2021/10/15 14:08:42;;;;;;;0.73;0.47;;;;;;;;;;5013192;28;20033;-52
2021/10/15 14:11:08;;;;;;;0.38;0.20;;;;;;;;;;5014290;28;20689;-55
2021/10/15 14:13:34;;;;;;;0.63;0.15;;;;;;;;;;5012730;28;20044;-52
2021/10/15 14:16:00;;;;;;;;;;;;;;;;;;5015334;28;20061;-51
2021/10/15 14:18:29;;;;;;;4.18;0.60;;;;;;;;;;5014223;28;20451;-53
2021/10/15 14:20:56;;;;;;;0.75;0.17;;;;;;;;;;5010655;28;20057;-52
2021/10/15 14:23:22;;;;;;;0.52;0.30;;;;;;;;;;5011984;28;20129;-53
2021/10/15 14:25:48;;;;;;;1.25;0.32;;;;;;;;;;5013094;28;20105;-52
2021/10/15 14:28:14;;;;;;;1.08;0.20;;;;;;;;;;5012039;28;20873;-52
2021/10/15 14:30:40;;;;;;;1.45;0.40;;;;;;;;;;5008137;28;20757;-51
2021/10/15 14:33:06;;;;;;;1.00;0.20;;;;;;;;;;5012561;28;20454;-52
2021/10/15 14:35:33;;;;;;;1.25;0.30;;;;;;;;;;5012983;28;20420;-53
2021/10/15 14:38:00;;;;;;;2.20;0.40;;;;;;;;;;5011761;28;20389;-55
2021/10/15 14:40:26;;;;;;;2.35;0.60;;;;;;;;;;5006936;28;20869;-56
2021/10/15 14:42:52;;;;;;;1.45;0.40;;;;;;;;;;5012405;28;20488;-55
2021/10/15 14:45:18;;;;;;;1.00;0.60;;;;;;;;;;5012161;28;20809;-52
2021/10/15 14:47:44;;;;;;;0.57;0.20;;;;;;;;;;5011379;28;20444;-54
2021/10/15 14:50:10;;;;;;;1.73;0.43;;;;;;;;;;5012664;28;20849;-55
2021/10/15 14:52:36;;;;;;;1.10;0.30;;;;;;;;;;5012836;28;20445;-57
2021/10/15 14:55:02;;;;;;;1.48;0.43;;;;;;;;;;5012820;28;20409;-55
2021/10/15 14:57:28;;;;;;;1.63;0.60;;;;;;;;;;5012100;28;20492;-53
2021/10/15 14:59:54;;;;;;;2.25;0.50;;;;;;;;;;5011548;28;20400;-51
2021/10/15 15:02:20;;;;;;;1.42;0.50;;;;;;;;;;5010938;28;20396;-52
2021/10/15 15:04:46;;;;;;;0.90;0.20;;;;;;;;;;5009814;28;20762;-51